Airfield :
LOGIN :

Register | Disclaimer

   EN    FR    IT 

 










Legend :    VFR   Marginal VFR   IFR   Intensive IFR   Very Intensive IFR
Visi :
Ceiling :
>= 8 km
>= 3000ft
5 to 8 km
1000 to 3000 ft
1500m to 5 km
500 to 1000 ft
800 to 1500m
200 to 500 ft
< 800m
< 200 ft
Symbols :   Thunderstorms  Fog  Heavy snow  Heavy precipitations  Wind > 20 kt
SIGMETs :     Misc.  Thunderstorms  Icing  Turbulence  Mountain Waves  Volcanic Ashes







- Airport Elevation : 1416 ft
- IATA code : ZRH


LSZH - Zurich

CURRENT METAR :
  • 211450Z VRB03KT CAVOK 21/11 Q1017 NOSIG

EXPIRED METARs :
  • 211420Z VRB03KT CAVOK 21/11 Q1017 NOSIG
  • 211350Z 32005KT 270V340 CAVOK 21/11 Q1018 NOSIG
  • 211320Z 31004KT 270V340 CAVOK 20/11 Q1018 NOSIG
  • 211250Z VRB02KT CAVOK 20/10 Q1018 NOSIG
  • 211220Z 29004KT 250V350 CAVOK 19/10 Q1019 NOSIG
  • 211150Z VRB02KT CAVOK 19/10 Q1019 NOSIG

TAF TAF LSZH
Valid from the 21 at 15:00 until the 22 at 21:00 UTC


211425Z 2115/2221 32005KT CAVOK TX21/2115Z TN09/2205Z TX22/2214Z
BECMG 2123/2202 4000 BR NSC
PROB30 2203/2206 2000 BCFG
BECMG 2206/2209 CAVOK
ATIS : +41 43 816 2295 (DEP) +41 43 816 2294 (ARR)
No reported NOTAMs for that airfield.



MET'MAP, your aeronautical weather chart ! - Copyright ORBIFLY December 2007 - Disclaimer

ORBIFLY MET'MAP TEAM :

Programming & Development : Alexandra Zaïnal
Concept & Development : Baudouin d'Aumeries
Co-Development & Prog : Marc-Olivier Méhu
Technical & hardware support : Manuel Goepfert

Contact : metmap@orbifly.com




SOURCES & CREDITS :

   NOAA